Bridgehampton, New York
Current Conditions -  °F | °C
As of 2:14 AM on Monday 22 Dec 2014 (Local Time) from KFOK Reporting Station
Overcast Overcast  
Wind Chill: 31°   Ceiling: 4200
Heat Index: 37°   Visibility: 9mi
Dew Point: 34°   Wind: 8mph
Humidity: 89%   Direction: 30°NNE
Pressure: 30.32"   Gusts: NA
Location:  40.94°N, 72.3°W
Report Text: KFOK 220714Z AUTO 03007KT 9SM FEW029 OVC042 03/01 A3032 RMK AO2 RAE02 P0000 T00280011 TSNO
Loading
Personal Weather Stations






























Interactive Weather Map New forecast layout! Learn more

10-Day Weather Forecast

Advertisements
Track Severe Weather on mobile